Time;durP1;ratioP1;P1;durP2;ratioP2;P2;SDS_P1;SDS_P2;PMS_P1;PMS_P2;Temp;Humidity;BMP_temperature;BMP_pressure;BME280_temperature;BME280_humidity;BME280_pressure;Samples;Min_cycle;Max_cycle;Signal;HPM_P1;HPM_P2
2024/01/29 00:01:57;;;;;;;8.40;2.75;;;;;;;;;;5074569;28;20059;-67
2024/01/29 00:04:24;;;;;;;5.47;2.20;;;;;;;;;;5079473;28;20055;-66
2024/01/29 00:06:51;;;;;;;5.82;2.13;;;;;;;;;;5083658;28;20063;-66
2024/01/29 00:09:19;;;;;;;4.40;2.00;;;;;;;;;;5080670;28;20047;-66
2024/01/29 00:11:46;;;;;;;4.22;2.13;;;;;;;;;;5066333;28;20068;-67
2024/01/29 00:14:13;;;;;;;6.47;2.60;;;;;;;;;;5075513;28;20044;-66
2024/01/29 00:16:42;;;;;;;3.85;1.92;;;;;;;;;;5072890;28;20057;-66
2024/01/29 00:19:09;;;;;;;5.03;2.40;;;;;;;;;;5070629;28;20386;-67
2024/01/29 00:21:37;;;;;;;5.15;2.20;;;;;;;;;;5069488;28;20059;-66
2024/01/29 00:24:04;;;;;;;4.50;2.40;;;;;;;;;;5052935;28;20051;-66
2024/01/29 00:26:31;;;;;;;4.30;2.33;;;;;;;;;;5070081;28;20063;-66
2024/01/29 00:28:58;;;;;;;5.97;2.45;;;;;;;;;;5052357;28;20082;-67
2024/01/29 00:31:26;;;;;;;6.55;2.60;;;;;;;;;;5071538;28;20044;-67
2024/01/29 00:33:54;;;;;;;7.10;2.20;;;;;;;;;;5071635;28;20040;-67
2024/01/29 00:36:22;;;;;;;4.70;2.70;;;;;;;;;;5071469;28;20491;-67
2024/01/29 00:38:49;;;;;;;6.38;2.75;;;;;;;;;;5074399;28;20076;-67
2024/01/29 00:41:16;;;;;;;10.82;2.65;;;;;;;;;;5082833;28;20048;-67
2024/01/29 00:43:43;;;;;;;4.15;2.33;;;;;;;;;;5075079;28;20399;-67
2024/01/29 00:46:11;;;;;;;4.68;2.25;;;;;;;;;;5075375;28;20040;-67
2024/01/29 00:48:38;;;;;;;7.90;2.33;;;;;;;;;;5084015;28;20051;-66
2024/01/29 00:51:07;;;;;;;6.82;2.67;;;;;;;;;;5081160;28;20055;-67
2024/01/29 00:53:34;;;;;;;6.75;2.50;;;;;;;;;;5080066;28;20048;-66
2024/01/29 00:56:01;;;;;;;5.30;2.97;;;;;;;;;;5073704;28;20415;-66
2024/01/29 00:58:28;;;;;;;4.57;2.60;;;;;;;;;;5073549;28;20049;-66
2024/01/29 01:00:56;;;;;;;6.13;2.75;;;;;;;;;;5063481;28;20048;-67
2024/01/29 01:03:23;;;;;;;5.97;2.50;;;;;;;;;;5073965;28;20051;-67
2024/01/29 01:05:50;;;;;;;6.05;2.88;;;;;;;;;;5072431;28;20635;-66
2024/01/29 01:08:19;;;;;;;6.80;2.70;;;;;;;;;;5075948;28;20059;-66
2024/01/29 01:10:46;;;;;;;6.78;2.60;;;;;;;;;;5064389;28;20048;-66
2024/01/29 01:13:13;;;;;;;7.80;3.10;;;;;;;;;;5076989;28;20079;-67
2024/01/29 01:15:41;;;;;;;4.35;2.50;;;;;;;;;;5071737;28;20114;-67
2024/01/29 01:18:08;;;;;;;8.55;2.97;;;;;;;;;;5076162;28;20503;-66
2024/01/29 01:20:35;;;;;;;6.80;2.58;;;;;;;;;;5078525;28;20657;-67
2024/01/29 01:23:02;;;;;;;6.32;2.60;;;;;;;;;;5082910;28;20060;-66
2024/01/29 01:25:31;;;;;;;6.20;2.78;;;;;;;;;;5082520;28;20075;-66
2024/01/29 01:27:58;;;;;;;6.07;3.00;;;;;;;;;;5059821;28;20059;-67
2024/01/29 01:30:26;;;;;;;5.30;2.60;;;;;;;;;;5074168;28;20059;-67
2024/01/29 01:32:53;;;;;;;6.03;2.55;;;;;;;;;;5078191;28;20510;-66
2024/01/29 01:35:20;;;;;;;5.88;2.55;;;;;;;;;;5076093;28;20048;-67
2024/01/29 01:37:48;;;;;;;6.18;2.63;;;;;;;;;;5062911;28;20051;-67
2024/01/29 01:40:15;;;;;;;7.82;2.85;;;;;;;;;;5056826;28;20048;-66
2024/01/29 01:42:44;;;;;;;4.97;2.70;;;;;;;;;;5087041;28;20512;-67
2024/01/29 01:45:13;;;;;;;7.40;3.25;;;;;;;;;;5075473;28;20040;-67
2024/01/29 01:47:40;;;;;;;6.45;2.90;;;;;;;;;;5074756;28;20053;-67
2024/01/29 01:50:09;;;;;;;8.05;2.95;;;;;;;;;;5083114;28;20048;-66
2024/01/29 01:52:37;;;;;;;5.35;2.78;;;;;;;;;;5073505;28;20411;-67
2024/01/29 01:55:04;;;;;;;10.65;3.65;;;;;;;;;;5080167;28;20066;-67
2024/01/29 01:57:31;;;;;;;6.30;2.40;;;;;;;;;;5077113;28;20052;-66
2024/01/29 02:00:00;;;;;;;7.05;3.05;;;;;;;;;;5083158;28;20059;-66
2024/01/29 02:02:28;;;;;;;9.60;3.33;;;;;;;;;;5058160;28;20048;-66
2024/01/29 02:04:55;;;;;;;7.20;2.90;;;;;;;;;;5086470;28;20052;-67
2024/01/29 02:07:23;;;;;;;6.97;2.90;;;;;;;;;;5070918;28;20055;-67
2024/01/29 02:09:50;;;;;;;6.28;2.40;;;;;;;;;;5081128;28;20106;-66
2024/01/29 02:12:19;;;;;;;6.20;2.78;;;;;;;;;;5077604;28;20047;-66
2024/01/29 02:14:46;;;;;;;5.68;2.80;;;;;;;;;;5072074;28;20076;-67
2024/01/29 02:17:15;;;;;;;7.97;3.00;;;;;;;;;;5080275;28;20076;-66
2024/01/29 02:19:42;;;;;;;5.63;2.80;;;;;;;;;;5054619;28;20139;-66
2024/01/29 02:22:10;;;;;;;7.35;3.10;;;;;;;;;;5080218;28;20052;-66
2024/01/29 02:24:38;;;;;;;9.02;3.20;;;;;;;;;;5077381;28;20407;-66
2024/01/29 02:27:06;;;;;;;7.63;2.90;;;;;;;;;;5078899;28;20056;-66
2024/01/29 02:29:33;;;;;;;6.97;3.03;;;;;;;;;;5060062;28;20460;-67
2024/01/29 02:32:00;;;;;;;5.90;3.08;;;;;;;;;;5081629;28;20052;-67
2024/01/29 02:34:28;;;;;;;6.38;3.13;;;;;;;;;;5074410;28;20043;-66
2024/01/29 02:36:55;;;;;;;6.22;3.03;;;;;;;;;;5073974;28;20048;-67
2024/01/29 02:39:22;;;;;;;6.90;3.22;;;;;;;;;;5081960;28;20121;-67
2024/01/29 02:41:51;;;;;;;7.13;3.38;;;;;;;;;;5080767;28;20060;-67
2024/01/29 02:44:18;;;;;;;9.45;3.47;;;;;;;;;;5073122;28;20059;-66
2024/01/29 02:46:45;;;;;;;9.13;3.28;;;;;;;;;;5072946;28;20048;-67
2024/01/29 02:49:12;;;;;;;7.97;2.97;;;;;;;;;;5077372;28;20406;-67
2024/01/29 02:51:40;;;;;;;5.85;3.00;;;;;;;;;;5075782;28;20050;-67
2024/01/29 02:54:07;;;;;;;6.93;3.10;;;;;;;;;;5084182;28;20055;-66
2024/01/29 02:56:34;;;;;;;8.35;3.42;;;;;;;;;;5084748;28;20048;-67
2024/01/29 02:59:03;;;;;;;8.25;3.03;;;;;;;;;;5083688;28;20048;-66
2024/01/29 03:01:30;;;;;;;9.00;3.15;;;;;;;;;;5077444;28;20044;-66
2024/01/29 03:03:57;;;;;;;5.93;2.97;;;;;;;;;;5084050;28;20463;-67
2024/01/29 03:06:25;;;;;;;11.65;3.67;;;;;;;;;;5080803;28;20040;-67
2024/01/29 03:08:52;;;;;;;8.70;3.60;;;;;;;;;;5083669;28;20062;-66
2024/01/29 03:11:20;;;;;;;7.65;3.33;;;;;;;;;;5073167;28;20041;-67
2024/01/29 03:13:48;;;;;;;8.10;3.65;;;;;;;;;;5070439;28;20683;-67
2024/01/29 03:16:16;;;;;;;6.85;3.15;;;;;;;;;;5083959;28;20048;-67
2024/01/29 03:18:43;;;;;;;7.80;3.22;;;;;;;;;;5079747;28;20483;-66
2024/01/29 03:21:11;;;;;;;6.60;3.25;;;;;;;;;;5080953;28;20055;-67
2024/01/29 03:23:38;;;;;;;7.88;3.35;;;;;;;;;;5077748;28;20060;-66
2024/01/29 03:26:05;;;;;;;7.53;3.22;;;;;;;;;;5079000;28;20040;-67
2024/01/29 03:28:33;;;;;;;6.68;3.13;;;;;;;;;;5073812;28;20056;-66
2024/01/29 03:31:00;;;;;;;7.57;3.63;;;;;;;;;;5077867;28;20385;-66
2024/01/29 03:33:28;;;;;;;9.15;3.60;;;;;;;;;;5081130;28;20044;-66
2024/01/29 03:35:56;;;;;;;6.57;3.53;;;;;;;;;;5057613;28;20404;-66
2024/01/29 03:38:23;;;;;;;6.70;3.47;;;;;;;;;;5079681;28;20506;-66
2024/01/29 03:40:50;;;;;;;6.53;3.75;;;;;;;;;;5078840;28;20529;-66
2024/01/29 03:43:19;;;;;;;10.25;3.30;;;;;;;;;;5076009;28;20041;-67
2024/01/29 03:45:47;;;;;;;7.70;3.70;;;;;;;;;;5075919;28;20055;-67
2024/01/29 03:48:14;;;;;;;9.10;3.85;;;;;;;;;;5071705;28;20049;-66
2024/01/29 03:50:42;;;;;;;7.60;3.70;;;;;;;;;;5077750;28;20063;-66
2024/01/29 03:53:10;;;;;;;9.10;3.78;;;;;;;;;;5077324;28;20059;-66
2024/01/29 03:55:37;;;;;;;8.05;3.67;;;;;;;;;;5077207;28;20067;-67
2024/01/29 03:58:04;;;;;;;8.15;3.03;;;;;;;;;;5075979;28;20054;-66
2024/01/29 04:00:32;;;;;;;6.82;3.60;;;;;;;;;;5077974;28;20454;-66
2024/01/29 04:02:59;;;;;;;6.80;3.65;;;;;;;;;;5075296;28;20056;-66
2024/01/29 04:05:26;;;;;;;7.20;3.47;;;;;;;;;;5075837;28;20043;-67
2024/01/29 04:07:55;;;;;;;7.78;3.97;;;;;;;;;;5081200;28;20494;-66
2024/01/29 04:10:22;;;;;;;10.32;4.30;;;;;;;;;;5075400;28;20049;-67
2024/01/29 04:12:50;;;;;;;7.88;4.00;;;;;;;;;;5074900;28;20593;-66
2024/01/29 04:15:17;;;;;;;7.07;3.55;;;;;;;;;;5069092;28;20051;-66
2024/01/29 04:17:44;;;;;;;9.60;4.13;;;;;;;;;;5077638;28;20051;-66
2024/01/29 04:20:12;;;;;;;8.23;4.18;;;;;;;;;;5071940;28;20059;-66
2024/01/29 04:22:39;;;;;;;10.27;3.83;;;;;;;;;;5071953;28;20058;-66
2024/01/29 04:25:08;;;;;;;8.90;3.97;;;;;;;;;;5072713;28;20052;-66
2024/01/29 04:27:35;;;;;;;8.23;3.65;;;;;;;;;;5075616;28;20067;-67
2024/01/29 04:30:04;;;;;;;7.50;3.78;;;;;;;;;;5077015;28;20491;-67
2024/01/29 04:32:32;;;;;;;7.03;3.90;;;;;;;;;;5079197;28;20093;-66
2024/01/29 04:34:59;;;;;;;6.47;3.60;;;;;;;;;;5075396;28;20048;-66
2024/01/29 04:37:26;;;;;;;10.10;4.10;;;;;;;;;;5071594;28;20052;-67
2024/01/29 04:39:53;;;;;;;8.40;4.50;;;;;;;;;;5074921;28;20517;-66
2024/01/29 04:42:22;;;;;;;7.00;3.53;;;;;;;;;;5069645;28;20089;-67
2024/01/29 04:44:49;;;;;;;8.77;3.92;;;;;;;;;;5062944;28;20067;-67
2024/01/29 04:47:16;;;;;;;7.03;3.95;;;;;;;;;;5070979;28;20048;-66
2024/01/29 04:49:44;;;;;;;7.63;3.67;;;;;;;;;;5081865;28;20772;-66
2024/01/29 04:52:11;;;;;;;8.15;4.35;;;;;;;;;;5076739;28;20052;-67
2024/01/29 04:54:39;;;;;;;6.85;4.00;;;;;;;;;;5080425;28;20499;-66
2024/01/29 04:57:06;;;;;;;10.32;4.13;;;;;;;;;;5077210;28;20051;-66
2024/01/29 04:59:35;;;;;;;8.07;4.00;;;;;;;;;;5082967;28;20085;-66
2024/01/29 05:02:02;;;;;;;6.93;3.70;;;;;;;;;;5077180;28;20048;-67
2024/01/29 05:04:30;;;;;;;7.10;3.65;;;;;;;;;;5076863;28;20461;-67
2024/01/29 05:06:57;;;;;;;9.60;4.20;;;;;;;;;;5085188;28;20047;-66
2024/01/29 05:09:24;;;;;;;7.38;3.80;;;;;;;;;;5084706;28;20043;-66
2024/01/29 05:11:51;;;;;;;9.90;4.10;;;;;;;;;;5084352;28;20051;-66
2024/01/29 05:14:19;;;;;;;8.38;4.07;;;;;;;;;;5075984;28;20106;-66
2024/01/29 05:16:47;;;;;;;9.30;4.28;;;;;;;;;;5082392;28;20051;-67
2024/01/29 05:19:15;;;;;;;10.93;3.90;;;;;;;;;;5074396;28;20040;-66
2024/01/29 05:21:42;;;;;;;7.63;4.00;;;;;;;;;;5076908;28;20051;-66
2024/01/29 05:24:09;;;;;;;12.70;4.20;;;;;;;;;;5077815;28;20063;-67
2024/01/29 05:26:36;;;;;;;12.23;4.22;;;;;;;;;;5081749;28;20040;-66
2024/01/29 05:29:04;;;;;;;10.35;4.82;;;;;;;;;;5082601;28;20052;-67
2024/01/29 05:31:31;;;;;;;7.93;4.43;;;;;;;;;;5057007;28;20059;-67
2024/01/29 05:34:00;;;;;;;7.60;4.63;;;;;;;;;;5073928;28;20049;-67
2024/01/29 05:36:27;;;;;;;9.45;4.10;;;;;;;;;;5081814;28;20036;-67
2024/01/29 05:38:54;;;;;;;9.43;4.40;;;;;;;;;;5081260;28;20186;-67
2024/01/29 05:41:21;;;;;;;8.65;4.28;;;;;;;;;;5079621;28;20055;-67
2024/01/29 05:43:49;;;;;;;10.30;4.65;;;;;;;;;;5074900;28;20047;-66
2024/01/29 05:46:16;;;;;;;8.30;4.35;;;;;;;;;;5081017;28;20048;-67
2024/01/29 05:48:43;;;;;;;7.70;4.50;;;;;;;;;;5082769;28;20402;-66
2024/01/29 05:51:12;;;;;;;8.60;4.40;;;;;;;;;;5076347;28;20061;-67
2024/01/29 05:53:39;;;;;;;7.38;4.28;;;;;;;;;;5079716;28;20051;-66
2024/01/29 05:56:07;;;;;;;9.40;4.20;;;;;;;;;;5079084;28;20044;-66
2024/01/29 05:58:36;;;;;;;12.98;4.18;;;;;;;;;;5078734;28;20036;-67
2024/01/29 06:01:04;;;;;;;12.32;4.57;;;;;;;;;;5078880;28;20072;-66
2024/01/29 06:03:31;;;;;;;8.43;4.60;;;;;;;;;;5079492;28;20480;-67
2024/01/29 06:05:58;;;;;;;9.82;4.38;;;;;;;;;;5085710;28;20059;-66
2024/01/29 06:08:27;;;;;;;8.60;4.38;;;;;;;;;;5082299;28;20062;-66
2024/01/29 06:10:55;;;;;;;8.95;4.30;;;;;;;;;;5080642;28;20064;-66
2024/01/29 06:13:23;;;;;;;8.43;4.68;;;;;;;;;;5074174;28;20048;-67
2024/01/29 06:15:51;;;;;;;10.32;4.95;;;;;;;;;;5076515;28;20052;-67
2024/01/29 06:18:18;;;;;;;9.38;5.28;;;;;;;;;;5076377;28;20051;-67
2024/01/29 06:20:46;;;;;;;11.38;5.35;;;;;;;;;;5081094;28;20510;-67
2024/01/29 06:23:14;;;;;;;11.98;4.53;;;;;;;;;;5081240;28;20080;-67
2024/01/29 06:25:43;;;;;;;8.32;4.80;;;;;;;;;;5065699;28;20047;-66
2024/01/29 06:28:10;;;;;;;10.00;5.00;;;;;;;;;;5076139;28;20056;-66
2024/01/29 06:30:38;;;;;;;10.25;5.20;;;;;;;;;;5080386;28;20403;-66
2024/01/29 06:33:05;;;;;;;9.55;4.57;;;;;;;;;;5074438;28;20067;-67
2024/01/29 06:35:33;;;;;;;11.43;5.50;;;;;;;;;;5079444;28;20063;-66
2024/01/29 06:38:00;;;;;;;10.68;5.90;;;;;;;;;;5080894;28;20044;-67
2024/01/29 06:40:27;;;;;;;10.05;5.88;;;;;;;;;;5075169;28;20040;-66
2024/01/29 06:42:57;;;;;;;12.23;5.65;;;;;;;;;;5073382;28;20056;-66
2024/01/29 06:45:24;;;;;;;14.10;5.50;;;;;;;;;;5076171;28;20106;-66
2024/01/29 06:47:51;;;;;;;14.07;5.97;;;;;;;;;;5074795;28;20059;-67
2024/01/29 06:50:18;;;;;;;12.95;6.13;;;;;;;;;;5078853;28;20048;-66
2024/01/29 06:52:46;;;;;;;14.63;6.45;;;;;;;;;;5058775;28;20049;-66
2024/01/29 06:55:13;;;;;;;12.23;6.05;;;;;;;;;;5080003;28;20139;-67
2024/01/29 06:57:41;;;;;;;14.02;6.13;;;;;;;;;;5061734;28;20064;-67
2024/01/29 07:00:11;;;;;;;14.23;6.60;;;;;;;;;;5078882;28;20056;-66
2024/01/29 07:02:38;;;;;;;13.90;6.32;;;;;;;;;;5073806;28;20127;-66
2024/01/29 07:05:05;;;;;;;11.75;5.80;;;;;;;;;;5077560;28;20077;-67
2024/01/29 07:07:33;;;;;;;10.65;5.63;;;;;;;;;;5084908;28;20375;-66
2024/01/29 07:10:00;;;;;;;14.43;6.43;;;;;;;;;;5079439;28;20055;-66
2024/01/29 07:12:27;;;;;;;11.80;6.32;;;;;;;;;;5056154;28;20388;-66
2024/01/29 07:14:55;;;;;;;12.35;5.65;;;;;;;;;;5076119;28;20067;-66
2024/01/29 07:17:23;;;;;;;14.07;6.35;;;;;;;;;;5076675;28;20056;-66
2024/01/29 07:19:52;;;;;;;14.98;7.35;;;;;;;;;;5069366;28;20068;-66
2024/01/29 07:22:19;;;;;;;10.38;5.55;;;;;;;;;;5080568;28;20056;-66
2024/01/29 07:24:48;;;;;;;10.50;5.57;;;;;;;;;;5076007;28;20045;-66
2024/01/29 07:27:16;;;;;;;13.73;6.10;;;;;;;;;;5063599;28;20055;-67
2024/01/29 07:29:43;;;;;;;10.43;5.97;;;;;;;;;;5072920;28;20059;-66
2024/01/29 07:32:10;;;;;;;11.30;6.10;;;;;;;;;;5075550;28;20475;-66
2024/01/29 07:34:39;;;;;;;11.60;6.38;;;;;;;;;;5074782;28;20049;-66
2024/01/29 07:37:06;;;;;;;10.40;5.78;;;;;;;;;;5053814;28;20480;-66
2024/01/29 07:39:34;;;;;;;10.43;5.85;;;;;;;;;;5074521;28;20055;-66
2024/01/29 07:42:01;;;;;;;10.82;5.68;;;;;;;;;;5078487;28;20438;-66
2024/01/29 07:44:30;;;;;;;13.02;5.65;;;;;;;;;;5079219;28;20557;-66
2024/01/29 07:46:57;;;;;;;12.90;6.60;;;;;;;;;;5077915;28;20376;-66
2024/01/29 07:49:24;;;;;;;12.35;6.28;;;;;;;;;;5079921;28;20048;-67
2024/01/29 07:51:53;;;;;;;11.52;5.57;;;;;;;;;;5086126;28;20056;-67
2024/01/29 07:54:21;;;;;;;13.48;6.43;;;;;;;;;;5086147;28;20056;-66
2024/01/29 07:56:48;;;;;;;12.45;6.35;;;;;;;;;;5082353;28;20604;-67
2024/01/29 07:59:15;;;;;;;12.05;6.93;;;;;;;;;;5084125;28;20044;-67
2024/01/29 08:01:44;;;;;;;12.60;5.97;;;;;;;;;;5084705;28;20054;-66
2024/01/29 08:04:11;;;;;;;11.68;6.80;;;;;;;;;;5066688;28;20491;-67
2024/01/29 08:06:41;;;;;;;12.77;6.25;;;;;;;;;;5082770;28;20047;-66
2024/01/29 08:09:10;;;;;;;12.30;6.35;;;;;;;;;;5084209;28;20051;-66
2024/01/29 08:11:37;;;;;;;15.50;6.70;;;;;;;;;;5058302;28;20064;-67
2024/01/29 08:14:04;;;;;;;12.20;6.72;;;;;;;;;;5065049;28;20487;-66
2024/01/29 08:16:31;;;;;;;13.45;6.28;;;;;;;;;;5082519;28;20549;-66
2024/01/29 08:19:00;;;;;;;13.52;6.50;;;;;;;;;;5081831;28;20130;-66
2024/01/29 08:21:27;;;;;;;13.18;5.90;;;;;;;;;;5080067;28;20123;-66
2024/01/29 08:23:55;;;;;;;13.40;6.70;;;;;;;;;;5062901;28;20052;-66
2024/01/29 08:26:23;;;;;;;12.48;6.65;;;;;;;;;;5083550;28;20483;-66
2024/01/29 08:28:51;;;;;;;13.00;6.15;;;;;;;;;;5064165;28;20059;-66
2024/01/29 08:31:18;;;;;;;11.18;6.43;;;;;;;;;;5080273;28;20036;-66
2024/01/29 08:33:45;;;;;;;14.00;6.95;;;;;;;;;;5083439;28;20052;-66
2024/01/29 08:36:13;;;;;;;9.75;6.65;;;;;;;;;;5066785;28;20430;-67
2024/01/29 08:38:42;;;;;;;13.55;6.82;;;;;;;;;;5082759;28;20056;-67
2024/01/29 08:41:09;;;;;;;13.00;6.13;;;;;;;;;;5084175;28;20055;-67
2024/01/29 08:43:38;;;;;;;12.23;6.15;;;;;;;;;;5081746;28;20135;-67
2024/01/29 08:46:05;;;;;;;12.25;6.05;;;;;;;;;;5080821;28;20048;-67
2024/01/29 08:48:33;;;;;;;11.38;5.70;;;;;;;;;;5079977;28;20067;-66
2024/01/29 08:51:00;;;;;;;13.20;5.32;;;;;;;;;;5081634;28;21001;-67
2024/01/29 08:53:28;;;;;;;15.05;6.35;;;;;;;;;;5080328;28;20071;-66
2024/01/29 08:55:55;;;;;;;11.07;5.65;;;;;;;;;;5080156;28;20586;-67
2024/01/29 08:58:22;;;;;;;14.00;6.25;;;;;;;;;;5082552;28;20401;-66
2024/01/29 09:00:53;;;;;;;10.63;5.57;;;;;;;;;;5076833;28;20052;-66
2024/01/29 09:03:21;;;;;;;12.98;5.95;;;;;;;;;;5053056;28;20059;-67
2024/01/29 09:05:48;;;;;;;10.70;5.90;;;;;;;;;;5074171;28;20055;-67
2024/01/29 09:08:16;;;;;;;11.63;6.72;;;;;;;;;;5081105;28;20048;-66
2024/01/29 09:10:43;;;;;;;13.27;6.55;;;;;;;;;;5083191;28;20048;-66
2024/01/29 09:13:10;;;;;;;13.77;6.50;;;;;;;;;;5083659;28;20143;-67
2024/01/29 09:15:37;;;;;;;14.90;6.20;;;;;;;;;;5077740;28;20048;-67
2024/01/29 09:18:06;;;;;;;11.80;6.22;;;;;;;;;;5078650;28;20044;-66
2024/01/29 09:20:34;;;;;;;10.43;6.57;;;;;;;;;;5075171;28;20162;-66
2024/01/29 09:23:01;;;;;;;14.13;6.88;;;;;;;;;;5078281;28;20407;-66
2024/01/29 09:25:28;;;;;;;12.85;6.50;;;;;;;;;;5071968;28;20056;-66
2024/01/29 09:27:55;;;;;;;12.20;6.40;;;;;;;;;;5076770;28;20548;-66
2024/01/29 09:30:23;;;;;;;20.90;7.85;;;;;;;;;;5070660;28;20048;-67
2024/01/29 09:32:50;;;;;;;13.27;6.20;;;;;;;;;;5076011;28;20052;-67
2024/01/29 09:35:18;;;;;;;10.38;6.15;;;;;;;;;;5081471;28;20048;-66
2024/01/29 09:37:46;;;;;;;14.20;6.60;;;;;;;;;;5071639;28;20056;-66
2024/01/29 09:40:13;;;;;;;12.10;6.70;;;;;;;;;;5080736;28;20052;-66
2024/01/29 09:42:41;;;;;;;12.57;6.57;;;;;;;;;;5074030;28;20381;-67
2024/01/29 09:45:12;;;;;;;14.73;6.75;;;;;;;;;;5077630;28;20048;-67
2024/01/29 09:47:39;;;;;;;13.73;6.40;;;;;;;;;;5075019;28;20094;-66
2024/01/29 09:50:08;;;;;;;10.25;6.50;;;;;;;;;;5081482;28;20050;-67
2024/01/29 09:52:37;;;;;;;13.07;6.93;;;;;;;;;;5080008;28;20486;-66
2024/01/29 09:55:05;;;;;;;13.57;6.72;;;;;;;;;;5074036;28;20055;-67
2024/01/29 09:57:32;;;;;;;11.88;6.50;;;;;;;;;;5084988;28;20430;-67
2024/01/29 10:00:00;;;;;;;11.93;5.95;;;;;;;;;;5058771;28;20118;-66
2024/01/29 10:02:27;;;;;;;10.48;5.82;;;;;;;;;;5075911;28;20044;-66
2024/01/29 10:04:55;;;;;;;12.23;6.68;;;;;;;;;;5073936;28;20052;-66
2024/01/29 10:07:22;;;;;;;11.98;6.57;;;;;;;;;;5083113;28;20066;-66
2024/01/29 10:09:53;;;;;;;12.65;6.72;;;;;;;;;;5084759;28;20055;-66
2024/01/29 10:12:23;;;;;;;13.55;7.25;;;;;;;;;;5075290;28;20063;-66
2024/01/29 10:14:55;;;;;;;12.75;6.75;;;;;;;;;;5053289;28;20056;-67
2024/01/29 10:17:23;;;;;;;15.93;7.32;;;;;;;;;;5056701;28;20468;-66
2024/01/29 10:19:49;;;;;;;12.77;6.88;;;;;;;;;;5054939;28;20064;-66
2024/01/29 10:22:17;;;;;;;12.98;7.05;;;;;;;;;;5061966;28;20059;-67
2024/01/29 10:24:45;;;;;;;15.13;6.68;;;;;;;;;;5046906;28;20052;-66
2024/01/29 10:27:13;;;;;;;13.13;6.93;;;;;;;;;;5067106;28;20045;-66
2024/01/29 10:29:50;;;;;;;11.27;6.47;;;;;;;;;;5055196;28;20064;-66
2024/01/29 10:32:17;;;;;;;12.75;6.47;;;;;;;;;;5053658;28;20415;-67
2024/01/29 10:34:45;;;;;;;10.57;6.70;;;;;;;;;;5058149;28;20053;-66
2024/01/29 10:37:12;;;;;;;11.85;6.80;;;;;;;;;;5061763;28;20110;-66
2024/01/29 10:39:40;;;;;;;12.90;7.10;;;;;;;;;;5066729;28;20048;-67
2024/01/29 10:42:09;;;;;;;12.07;6.82;;;;;;;;;;5049691;28;20461;-66
2024/01/29 10:44:39;;;;;;;15.63;6.82;;;;;;;;;;5046305;28;20082;-66
2024/01/29 10:47:10;;;;;;;17.15;7.32;;;;;;;;;;5057908;28;20102;-66
2024/01/29 10:49:37;;;;;;;16.30;7.15;;;;;;;;;;5055576;28;20052;-67
2024/01/29 10:52:06;;;;;;;20.98;8.15;;;;;;;;;;5058802;28;20412;-67
2024/01/29 10:54:34;;;;;;;21.05;8.70;;;;;;;;;;5059523;28;20064;-66
2024/01/29 10:57:02;;;;;;;24.88;9.75;;;;;;;;;;5063519;28;20091;-67
2024/01/29 10:59:30;;;;;;;20.63;9.98;;;;;;;;;;5056430;28;20059;-67
2024/01/29 11:01:59;;;;;;;26.65;10.30;;;;;;;;;;5059194;28;20506;-67
2024/01/29 11:04:26;;;;;;;24.90;9.38;;;;;;;;;;5061153;28;20053;-67
2024/01/29 11:06:55;;;;;;;28.20;10.27;;;;;;;;;;5052297;28;20064;-67
2024/01/29 11:09:24;;;;;;;30.65;10.80;;;;;;;;;;5053553;28;20068;-67
2024/01/29 11:11:53;;;;;;;22.88;9.65;;;;;;;;;;5034622;28;20061;-67
2024/01/29 11:14:21;;;;;;;30.90;10.05;;;;;;;;;;5057630;28;20080;-67
2024/01/29 11:16:48;;;;;;;30.60;10.85;;;;;;;;;;5073527;28;20066;-67
2024/01/29 11:19:18;;;;;;;32.50;10.80;;;;;;;;;;5071606;28;20082;-66
2024/01/29 11:21:46;;;;;;;36.00;11.48;;;;;;;;;;5082024;28;20048;-67
2024/01/29 11:24:13;;;;;;;32.78;10.82;;;;;;;;;;5078410;28;20052;-66
2024/01/29 11:26:40;;;;;;;39.58;11.80;;;;;;;;;;5060877;28;20423;-67
2024/01/29 11:29:10;;;;;;;33.20;11.13;;;;;;;;;;5078950;28;20098;-66
2024/01/29 11:31:40;;;;;;;35.85;11.48;;;;;;;;;;5070314;28;20094;-66
2024/01/29 11:34:07;;;;;;;40.25;13.15;;;;;;;;;;5076495;28;20056;-67
2024/01/29 11:36:37;;;;;;;52.70;13.68;;;;;;;;;;5081754;28;20054;-67
2024/01/29 11:39:05;;;;;;;43.53;13.38;;;;;;;;;;5076426;28;20102;-67
2024/01/29 11:41:33;;;;;;;47.40;14.35;;;;;;;;;;5079319;28;20055;-66
2024/01/29 11:44:01;;;;;;;66.65;17.33;;;;;;;;;;5080144;28;20040;-66
2024/01/29 11:46:29;;;;;;;73.57;17.27;;;;;;;;;;5076125;28;20047;-66
2024/01/29 11:48:56;;;;;;;72.05;17.92;;;;;;;;;;5079017;28;20494;-66
2024/01/29 11:51:24;;;;;;;81.53;17.88;;;;;;;;;;5076235;28;20056;-66
2024/01/29 11:53:53;;;;;;;68.55;15.98;;;;;;;;;;5082103;28;20040;-66
2024/01/29 11:56:20;;;;;;;71.68;16.58;;;;;;;;;;5078026;28;20147;-66
2024/01/29 11:58:48;;;;;;;58.35;15.93;;;;;;;;;;5076539;28;20051;-67
2024/01/29 12:01:15;;;;;;;55.45;15.75;;;;;;;;;;5077421;28;20056;-67
2024/01/29 12:03:48;;;;;;;58.83;15.57;;;;;;;;;;5069735;28;20394;-67
2024/01/29 12:06:16;;;;;;;64.13;16.70;;;;;;;;;;5060937;28;20123;-67
2024/01/29 12:08:47;;;;;;;74.10;16.67;;;;;;;;;;5082188;28;20155;-66
2024/01/29 12:11:16;;;;;;;62.22;14.40;;;;;;;;;;5073919;28;20117;-67
2024/01/29 12:13:46;;;;;;;60.42;15.40;;;;;;;;;;5077180;28;20088;-67
2024/01/29 12:16:13;;;;;;;47.10;14.15;;;;;;;;;;5070742;28;20060;-66
2024/01/29 12:18:41;;;;;;;45.60;13.93;;;;;;;;;;5057518;28;20036;-66
2024/01/29 12:21:08;;;;;;;39.80;11.45;;;;;;;;;;5072258;28;20048;-67
2024/01/29 12:23:35;;;;;;;29.80;11.05;;;;;;;;;;5071516;28;20048;-66
2024/01/29 12:26:03;;;;;;;25.52;10.32;;;;;;;;;;5073770;28;20475;-67
2024/01/29 12:28:32;;;;;;;23.52;9.90;;;;;;;;;;5072908;28;20063;-66
2024/01/29 12:31:00;;;;;;;20.85;9.70;;;;;;;;;;5076214;28;20047;-66
2024/01/29 12:33:31;;;;;;;16.48;8.45;;;;;;;;;;5067226;28;20403;-68
2024/01/29 12:35:59;;;;;;;14.88;8.60;;;;;;;;;;5076012;28;20051;-67
2024/01/29 12:38:26;;;;;;;14.63;7.95;;;;;;;;;;5069444;28;20475;-67
2024/01/29 12:40:56;;;;;;;15.95;8.55;;;;;;;;;;5077905;28;20352;-67
2024/01/29 12:43:28;;;;;;;14.73;8.32;;;;;;;;;;5082352;28;20184;-66
2024/01/29 12:46:07;;;;;;;15.73;8.63;;;;;;;;;;5081138;28;20055;-67
2024/01/29 12:48:34;;;;;;;17.02;9.40;;;;;;;;;;5080494;28;20064;-67
2024/01/29 12:51:01;;;;;;;17.85;8.95;;;;;;;;;;5083778;28;20044;-66
2024/01/29 12:53:28;;;;;;;17.55;9.65;;;;;;;;;;5060167;28;20071;-66
2024/01/29 12:55:56;;;;;;;16.38;8.48;;;;;;;;;;5084425;28;20163;-66
2024/01/29 12:58:23;;;;;;;20.00;10.05;;;;;;;;;;5081996;28;20036;-66
2024/01/29 13:00:51;;;;;;;23.88;9.52;;;;;;;;;;5087605;28;20052;-66
2024/01/29 13:03:19;;;;;;;16.23;8.02;;;;;;;;;;5074436;28;20056;-67
2024/01/29 13:05:47;;;;;;;17.52;9.15;;;;;;;;;;5077371;28;20044;-67
2024/01/29 13:08:14;;;;;;;16.25;8.75;;;;;;;;;;5076258;28;20070;-67
2024/01/29 13:10:44;;;;;;;16.38;8.57;;;;;;;;;;5078918;28;20148;-66
2024/01/29 13:13:11;;;;;;;22.27;8.70;;;;;;;;;;5074479;28;20393;-67
2024/01/29 13:15:39;;;;;;;14.77;8.50;;;;;;;;;;5078642;28;20041;-66
2024/01/29 13:18:06;;;;;;;15.43;8.20;;;;;;;;;;5083989;28;20043;-67
2024/01/29 13:20:36;;;;;;;16.35;8.85;;;;;;;;;;5080546;28;20051;-66
2024/01/29 13:23:04;;;;;;;18.77;9.63;;;;;;;;;;5082715;28;20499;-66
2024/01/29 13:25:31;;;;;;;11.32;7.68;;;;;;;;;;5081914;28;20056;-67
2024/01/29 13:27:59;;;;;;;15.10;9.32;;;;;;;;;;5086012;28;20044;-66
2024/01/29 13:30:26;;;;;;;15.23;8.50;;;;;;;;;;5079068;28;20410;-67
2024/01/29 13:32:53;;;;;;;20.65;9.82;;;;;;;;;;5082736;28;20053;-67
2024/01/29 13:35:21;;;;;;;14.90;7.88;;;;;;;;;;5087984;28;20052;-67
2024/01/29 13:37:50;;;;;;;17.90;8.40;;;;;;;;;;5075316;28;20048;-66
2024/01/29 13:40:18;;;;;;;14.80;8.07;;;;;;;;;;5080784;28;20123;-67
2024/01/29 13:42:46;;;;;;;16.75;8.68;;;;;;;;;;5079142;28;20052;-67
2024/01/29 13:45:13;;;;;;;15.63;8.85;;;;;;;;;;5082244;28;20083;-67
2024/01/29 13:47:40;;;;;;;16.52;8.27;;;;;;;;;;5077341;28;20039;-67
2024/01/29 13:50:08;;;;;;;20.02;8.82;;;;;;;;;;5075738;28;20047;-67
2024/01/29 13:52:35;;;;;;;17.17;9.10;;;;;;;;;;5075338;28;20053;-66
2024/01/29 13:55:04;;;;;;;18.00;9.65;;;;;;;;;;5077722;28;20080;-67
2024/01/29 13:57:32;;;;;;;17.38;9.45;;;;;;;;;;5066817;28;20063;-66
2024/01/29 14:00:00;;;;;;;15.45;9.45;;;;;;;;;;5066988;28;20123;-67
2024/01/29 14:02:27;;;;;;;16.88;10.20;;;;;;;;;;5085256;28;20048;-66
2024/01/29 14:04:54;;;;;;;17.23;10.05;;;;;;;;;;5085997;28;20059;-67
2024/01/29 14:07:21;;;;;;;16.38;9.73;;;;;;;;;;5087736;28;20044;-67
2024/01/29 14:09:49;;;;;;;19.13;9.52;;;;;;;;;;5079297;28;20071;-67
2024/01/29 14:12:18;;;;;;;16.27;9.60;;;;;;;;;;5080265;28;20406;-67
2024/01/29 14:14:46;;;;;;;22.00;10.32;;;;;;;;;;5080281;28;20051;-66
2024/01/29 14:17:13;;;;;;;19.95;9.85;;;;;;;;;;5081759;28;20515;-67
2024/01/29 14:19:42;;;;;;;18.17;10.40;;;;;;;;;;5079258;28;20037;-66
2024/01/29 14:22:10;;;;;;;17.10;9.55;;;;;;;;;;5079465;28;20083;-66
2024/01/29 14:24:37;;;;;;;19.60;10.38;;;;;;;;;;5075962;28;20052;-67
2024/01/29 14:27:04;;;;;;;16.08;8.88;;;;;;;;;;5076818;28;20044;-66
2024/01/29 14:29:33;;;;;;;14.32;9.05;;;;;;;;;;5073717;28;20056;-66
2024/01/29 14:32:01;;;;;;;16.67;8.93;;;;;;;;;;5084341;28;20044;-67
2024/01/29 14:34:30;;;;;;;20.00;9.65;;;;;;;;;;5081963;28;20550;-67
2024/01/29 14:36:57;;;;;;;17.92;9.52;;;;;;;;;;5082810;28;20700;-67